Time;durP1;ratioP1;P1;durP2;ratioP2;P2;SDS_P1;SDS_P2;PMS_P1;PMS_P2;Temp;Humidity;BMP_temperature;BMP_pressure;BME280_temperature;BME280_humidity;BME280_pressure;Samples;Min_cycle;Max_cycle;Signal;HPM_P1;HPM_P2
2021/12/02 00:00:59;;;;;;;14.97;4.00;;;;;5.30;99535.00;;;;10492033;28;20279;-79
2021/12/02 00:06:02;;;;;;;15.73;4.30;;;;;5.30;99543.00;;;;10476250;28;20221;-78
2021/12/02 00:11:04;;;;;;;13.60;4.40;;;;;5.20;99537.00;;;;10471865;28;20209;-80
2021/12/02 00:16:20;;;;;;;16.23;4.13;;;;;5.20;99536.00;;;;10473582;28;20300;-80
2021/12/02 00:21:24;;;;;;;13.50;4.20;;;;;5.20;99534.00;;;;10474179;28;20196;-80
2021/12/02 00:26:28;;;;;;;12.43;4.77;;;;;5.10;99529.00;;;;10505182;28;20220;-80
2021/12/02 00:31:33;;;;;;;11.00;4.20;;;;;4.90;99533.00;;;;10505086;28;20227;-79
2021/12/02 00:36:38;;;;;;;14.87;4.97;;;;;4.80;99525.00;;;;10474083;28;20201;-79
2021/12/02 00:41:41;;;;;;;10.30;4.87;;;;;4.60;99533.00;;;;10511540;27;20217;-80
2021/12/02 00:46:46;;;;;;;10.93;4.60;;;;;4.50;99542.00;;;;10514265;27;20224;-79
2021/12/02 00:51:54;;;;;;;13.30;4.37;;;;;4.40;99566.00;;;;10512614;28;20651;-80
2021/12/02 00:56:56;;;;;;;13.90;4.57;;;;;4.50;99563.00;;;;10530199;28;20196;-80
2021/12/02 01:01:59;;;;;;;12.53;4.30;;;;;4.50;99563.00;;;;10530541;27;20232;-80
2021/12/02 01:07:01;;;;;;;11.93;3.83;;;;;4.60;99573.00;;;;10530231;27;20233;-80
2021/12/02 01:12:04;;;;;;;21.13;4.57;;;;;4.70;99571.00;;;;10469661;28;20545;-81
2021/12/02 01:17:06;;;;;;;21.97;5.73;;;;;4.70;99563.00;;;;10459071;28;20209;-80
2021/12/02 01:22:09;;;;;;;14.47;4.50;;;;;4.70;99578.00;;;;10462435;28;20209;-79
2021/12/02 01:27:11;;;;;;;21.63;5.83;;;;;4.60;99575.00;;;;10491564;28;20205;-79
2021/12/02 01:32:15;;;;;;;25.63;7.37;;;;;4.60;99575.00;;;;10533467;27;20228;-79
2021/12/02 01:37:18;;;;;;;23.63;6.03;;;;;4.50;99582.00;;;;10544394;28;20679;-79
2021/12/02 01:42:23;;;;;;;19.77;6.07;;;;;4.30;99579.00;;;;10498348;28;20217;-79
2021/12/02 01:47:31;;;;;;;28.23;5.70;;;;;4.30;99584.00;;;;10457597;28;20754;-79
2021/12/02 01:52:33;;;;;;;24.27;5.00;;;;;4.30;99594.00;;;;10431935;28;20872;-79
2021/12/02 01:57:39;;;;;;;16.07;4.03;;;;;4.40;99591.00;;;;10460365;28;20204;-79
2021/12/02 02:02:42;;;;;;;21.00;4.93;;;;;4.50;99592.00;;;;10460544;28;20217;-81
2021/12/02 02:07:45;;;;;;;25.30;4.30;;;;;4.50;99594.00;;;;10461168;28;20197;-80
2021/12/02 02:12:47;;;;;;;20.03;4.37;;;;;4.50;99589.00;;;;10478502;28;20223;-80
2021/12/02 02:23:07;;;;;;;14.00;2.93;;;;;4.30;99601.00;;;;10469946;28;20208;-80
2021/12/02 02:28:09;;;;;;;10.03;2.37;;;;;4.20;99599.00;;;;10485742;28;20208;-80
2021/12/02 02:33:12;;;;;;;7.97;1.97;;;;;4.10;99603.00;;;;10485532;28;20221;-81
2021/12/02 02:38:15;;;;;;;6.10;1.57;;;;;4.10;99614.00;;;;10486569;28;20196;-80
2021/12/02 02:43:25;;;;;;;7.10;1.50;;;;;4.20;99618.00;;;;10491156;28;20699;-80
2021/12/02 02:48:28;;;;;;;11.60;2.23;;;;;4.20;99625.00;;;;10493944;28;20200;-80
2021/12/02 02:53:32;;;;;;;16.77;3.47;;;;;4.20;99625.00;;;;10529668;28;20288;-80
2021/12/02 03:19:49;;;;;;;7.90;3.10;;;;;4.00;99614.00;;;;10491681;28;20287;-80
2021/12/02 03:24:51;;;;;;;5.67;2.30;;;;;3.90;99625.00;;;;10488698;28;20217;-80
2021/12/02 03:29:54;;;;;;;6.37;2.07;;;;;3.80;99627.00;;;;10466960;28;20181;-80
2021/12/02 03:34:56;;;;;;;2.80;1.63;;;;;3.80;99628.00;;;;10449508;28;20248;-79
2021/12/02 03:39:57;;;;;;;3.67;1.20;;;;;3.80;99650.00;;;;10473294;28;20200;-80
2021/12/02 03:45:00;;;;;;;5.77;1.40;;;;;3.80;99647.00;;;;10490750;28;20584;-80
2021/12/02 03:50:02;;;;;;;4.10;1.30;;;;;3.80;99667.00;;;;10497094;28;20192;-80
2021/12/02 03:55:05;;;;;;;1.63;0.50;;;;;3.60;99653.00;;;;10532745;28;20220;-80
2021/12/02 04:00:07;;;;;;;2.47;0.70;;;;;3.40;99645.00;;;;10529761;28;20648;-80
2021/12/02 04:05:15;;;;;;;4.87;0.70;;;;;3.30;99641.00;;;;10483358;28;20713;-80
2021/12/02 04:10:18;;;;;;;3.00;0.80;;;;;3.30;99626.00;;;;10516921;27;20203;-79
2021/12/02 04:15:30;;;;;;;6.60;0.73;;;;;3.20;99618.00;;;;10528556;27;20201;-79
2021/12/02 04:20:33;;;;;;;4.10;0.80;;;;;3.20;99631.00;;;;10488929;28;20209;-79
2021/12/02 04:25:35;;;;;;;6.20;1.30;;;;;3.20;99634.00;;;;10488639;28;20262;-79
2021/12/02 04:30:37;;;;;;;3.57;1.30;;;;;3.30;99614.00;;;;10488644;28;20842;-80
2021/12/02 04:35:39;;;;;;;5.97;1.60;;;;;3.30;99628.00;;;;10467184;28;20315;-80
2021/12/02 04:40:42;;;;;;;4.57;2.00;;;;;3.30;99647.00;;;;10463904;28;20603;-79
2021/12/02 04:45:44;;;;;;;14.03;3.47;;;;;3.30;99660.00;;;;10473257;28;20221;-80
2021/12/02 04:50:47;;;;;;;15.00;5.37;;;;;3.00;99645.00;;;;10489683;28;20250;-80
2021/12/02 04:55:49;;;;;;;12.17;4.57;;;;;2.90;99639.00;;;;10488361;28;20200;-79
2021/12/02 05:00:51;;;;;;;12.77;4.40;;;;;2.90;99630.00;;;;10450551;28;20194;-79
2021/12/02 05:05:53;;;;;;;13.70;4.17;;;;;2.90;99629.00;;;;10461682;28;20221;-79
2021/12/02 05:10:55;;;;;;;8.63;3.27;;;;;2.90;99646.00;;;;10526357;27;20203;-80
2021/12/02 05:15:57;;;;;;;8.60;4.23;;;;;2.80;99656.00;;;;10510454;27;20253;-80
2021/12/02 05:21:02;;;;;;;9.43;3.43;;;;;2.90;99665.00;;;;10471462;28;20211;-79
2021/12/02 05:26:04;;;;;;;9.10;2.70;;;;;2.90;99667.00;;;;10522926;27;20211;-80
2021/12/02 05:31:06;;;;;;;6.23;1.67;;;;;3.00;99663.00;;;;10512792;27;20219;-79
2021/12/02 05:36:08;;;;;;;9.23;1.47;;;;;2.90;99666.00;;;;10529597;28;20651;-80
2021/12/02 05:41:14;;;;;;;2.33;0.67;;;;;2.70;99679.00;;;;10490987;28;20250;-80
2021/12/02 05:46:16;;;;;;;7.30;1.13;;;;;2.40;99671.00;;;;10495267;28;20403;-79
2021/12/02 05:51:18;;;;;;;4.03;0.70;;;;;2.30;99681.00;;;;10520796;28;20222;-80
2021/12/02 05:56:20;;;;;;;3.47;0.70;;;;;2.10;99692.00;;;;10529650;28;20214;-80
2021/12/02 06:01:23;;;;;;;2.27;0.70;;;;;2.00;99682.00;;;;10529258;28;20241;-79
2021/12/02 06:06:26;;;;;;;0.93;0.50;;;;;1.90;99676.00;;;;10520599;28;20216;-79
2021/12/02 06:11:28;;;;;;;3.50;0.73;;;;;1.80;99698.00;;;;10486343;28;20201;-79
2021/12/02 06:16:31;;;;;;;4.33;1.07;;;;;1.90;99693.00;;;;10507396;28;20312;-79
2021/12/02 06:21:34;;;;;;;1.77;1.07;;;;;2.00;99703.00;;;;10494171;28;20201;-79
2021/12/02 06:26:37;;;;;;;5.37;1.23;;;;;2.00;99706.00;;;;10482277;28;20576;-79
2021/12/02 06:31:39;;;;;;;4.00;1.00;;;;;2.10;99718.00;;;;10452174;28;20261;-79
2021/12/02 06:36:41;;;;;;;4.17;1.37;;;;;2.20;99702.00;;;;10485709;28;20251;-79
2021/12/02 06:41:43;;;;;;;12.00;1.90;;;;;2.30;99715.00;;;;10535939;27;20212;-79
2021/12/02 06:46:45;;;;;;;7.83;1.67;;;;;2.40;99717.00;;;;10477636;28;20224;-79
2021/12/02 06:51:47;;;;;;;7.77;1.77;;;;;2.40;99716.00;;;;10494065;28;20196;-79
2021/12/02 06:56:49;;;;;;;10.80;2.10;;;;;2.40;99720.00;;;;10484461;28;20201;-80
2021/12/02 07:01:51;;;;;;;12.67;3.47;;;;;2.50;99711.00;;;;10472112;28;20205;-79
2021/12/02 07:06:53;;;;;;;22.80;4.83;;;;;2.50;99713.00;;;;10443555;28;20311;-80
2021/12/02 07:11:55;;;;;;;15.87;4.50;;;;;2.60;99726.00;;;;10490491;28;20200;-80
2021/12/02 07:16:57;;;;;;;27.30;6.47;;;;;2.50;99734.00;;;;10470069;28;20197;-79
2021/12/02 07:22:00;;;;;;;14.77;5.10;;;;;2.50;99752.00;;;;10440752;28;20622;-78
2021/12/02 07:27:02;;;;;;;10.70;2.80;;;;;2.40;99780.00;;;;10449192;28;20217;-79
2021/12/02 07:32:04;;;;;;;2.57;0.80;;;;;1.70;99801.00;;;;10455454;28;20229;-79
2021/12/02 07:37:06;;;;;;;2.17;0.93;;;;;1.10;99805.00;;;;10485358;28;20204;-79
2021/12/02 07:42:08;;;;;;;0.63;0.40;;;;;0.80;99811.00;;;;10459755;28;20192;-79
2021/12/02 07:47:12;;;;;;;1.13;0.43;;;;;0.60;99822.00;;;;10486947;28;20212;-80
2021/12/02 07:52:15;;;;;;;0.83;0.47;;;;;0.50;99822.00;;;;10491636;28;20204;-77
2021/12/02 07:57:18;;;;;;;1.27;0.93;;;;;0.40;99805.00;;;;10477945;28;20209;-80
2021/12/02 08:02:21;;;;;;;0.90;0.90;;;;;0.40;99825.00;;;;10497490;28;20193;-77
2021/12/02 08:07:24;;;;;;;1.43;1.10;;;;;0.50;99812.00;;;;10471783;28;20299;-78
2021/12/02 08:12:26;;;;;;;3.80;1.83;;;;;0.60;99822.00;;;;10471104;28;20856;-77
2021/12/02 08:17:28;;;;;;;2.90;1.20;;;;;0.80;99839.00;;;;10504618;28;20205;-78
2021/12/02 08:22:32;;;;;;;1.33;0.97;;;;;0.90;99848.00;;;;10456596;28;20194;-77
2021/12/02 08:27:34;;;;;;;2.90;1.77;;;;;1.00;99847.00;;;;10539523;28;20224;-77
2021/12/02 08:32:38;;;;;;;3.53;1.47;;;;;1.10;99851.00;;;;10502617;28;20218;-78
2021/12/02 08:37:44;;;;;;;2.50;1.73;;;;;1.30;99875.00;;;;10460277;28;20247;-79
2021/12/02 08:42:47;;;;;;;4.23;1.40;;;;;1.30;99873.00;;;;10496605;28;20644;-80
2021/12/02 08:47:49;;;;;;;4.13;1.30;;;;;1.30;99884.00;;;;10499100;28;20220;-80
2021/12/02 08:52:52;;;;;;;4.00;2.00;;;;;1.40;99865.00;;;;10501109;28;20201;-79
2021/12/02 08:57:54;;;;;;;4.90;1.40;;;;;1.60;99887.00;;;;10473179;28;20200;-79
2021/12/02 09:02:56;;;;;;;3.90;1.93;;;;;1.40;99879.00;;;;10451008;28;20193;-80
2021/12/02 09:07:59;;;;;;;4.03;2.40;;;;;1.40;99875.00;;;;10477048;28;20311;-79
2021/12/02 09:13:07;;;;;;;4.23;2.30;;;;;1.40;99875.00;;;;10486129;28;20204;-80
2021/12/02 09:18:09;;;;;;;3.80;2.27;;;;;1.40;99877.00;;;;10473647;28;20204;-79
2021/12/02 09:23:13;;;;;;;6.33;2.33;;;;;1.70;99881.00;;;;10492961;28;20219;-79
2021/12/02 09:28:15;;;;;;;8.13;3.43;;;;;2.10;99887.00;;;;10453737;28;20201;-80
2021/12/02 09:33:19;;;;;;;11.03;5.23;;;;;2.50;99883.00;;;;10474461;28;20221;-80
2021/12/02 09:38:21;;;;;;;15.03;6.73;;;;;3.20;99882.00;;;;10475075;28;20219;-80
2021/12/02 09:43:24;;;;;;;21.53;6.93;;;;;3.30;99910.00;;;;10447714;28;20208;-79
2021/12/02 09:48:28;;;;;;;13.77;6.03;;;;;2.50;99917.00;;;;10466194;28;20203;-80
2021/12/02 09:53:38;;;;;;;17.70;5.07;;;;;1.90;99927.00;;;;10486297;28;20199;-80
2021/12/02 09:58:40;;;;;;;16.00;5.30;;;;;1.70;99926.00;;;;10516769;28;20669;-81
2021/12/02 10:03:44;;;;;;;21.83;5.80;;;;;1.70;99924.00;;;;10460538;28;20217;-80
2021/12/02 10:08:56;;;;;;;13.93;4.87;;;;;1.80;99927.00;;;;10484066;28;20208;-79
2021/12/02 10:14:37;;;;;;;11.57;3.57;;;;;2.00;99935.00;;;;10501579;28;20201;-80
2021/12/02 10:20:12;;;;;;;13.33;3.70;;;;;2.30;99946.00;;;;10447815;28;20586;-78
2021/12/02 10:25:29;;;;;;;9.43;3.20;;;;;2.50;99935.00;;;;10507753;28;20723;-78
2021/12/02 10:30:33;;;;;;;5.50;2.27;;;;;2.70;99928.00;;;;10450426;28;20766;-78
2021/12/02 10:35:45;;;;;;;7.43;1.90;;;;;2.70;99943.00;;;;10467593;28;20705;-79
2021/12/02 10:41:01;;;;;;;4.50;1.63;;;;;2.40;99943.00;;;;10454662;28;20205;-79
2021/12/02 10:46:15;;;;;;;2.37;1.40;;;;;2.20;99945.00;;;;10461320;28;20680;-79
2021/12/02 10:51:37;;;;;;;3.10;1.70;;;;;2.10;99956.00;;;;10472957;28;20211;-78
2021/12/02 10:56:50;;;;;;;5.47;2.50;;;;;2.50;99935.00;;;;10474440;28;20189;-79
2021/12/02 11:01:55;;;;;;;4.47;2.37;;;;;2.60;99933.00;;;;10489948;28;20659;-80
2021/12/02 11:07:01;;;;;;;4.87;1.87;;;;;2.50;99942.00;;;;10477915;28;20212;-80
2021/12/02 11:12:17;;;;;;;3.70;1.33;;;;;2.60;99948.00;;;;10443275;28;20279;-81
2021/12/02 11:17:20;;;;;;;4.20;1.60;;;;;2.70;99940.00;;;;10474500;28;20247;-82
2021/12/02 11:22:23;;;;;;;4.73;2.20;;;;;2.70;99942.00;;;;10467965;28;20201;-82
2021/12/02 11:27:35;;;;;;;5.53;2.10;;;;;2.60;99933.00;;;;10447652;28;20634;-81
2021/12/02 11:32:46;;;;;;;4.37;2.33;;;;;3.00;99929.00;;;;10468881;28;20701;-81
2021/12/02 11:38:01;;;;;;;5.73;2.40;;;;;3.50;99931.00;;;;10492427;28;20204;-81
2021/12/02 11:43:03;;;;;;;4.60;1.90;;;;;3.80;99952.00;;;;10475249;28;20204;-80
2021/12/02 11:48:05;;;;;;;4.00;2.07;;;;;3.50;99943.00;;;;10490451;28;20236;-80
2021/12/02 11:53:07;;;;;;;3.77;2.40;;;;;3.10;99947.00;;;;10491029;28;20201;-81
2021/12/02 11:58:10;;;;;;;3.10;1.93;;;;;2.90;99945.00;;;;10465077;28;20554;-80
2021/12/02 12:03:15;;;;;;;3.37;2.27;;;;;3.10;99954.00;;;;10468476;28;20212;-80
2021/12/02 12:08:39;;;;;;;3.20;2.57;;;;;3.70;99958.00;;;;10490137;28;20679;-80
2021/12/02 12:13:48;;;;;;;9.23;3.33;;;;;4.20;99964.00;;;;10472937;28;20207;-79
2021/12/02 12:18:51;;;;;;;5.47;3.83;;;;;4.20;99970.00;;;;10506450;28;20201;-80
2021/12/02 12:24:00;;;;;;;8.90;4.10;;;;;4.90;99975.00;;;;10476912;28;20994;-80
2021/12/02 12:29:09;;;;;;;6.77;4.87;;;;;5.20;99988.00;;;;10481569;28;20679;-79
2021/12/02 12:34:39;;;;;;;8.17;4.70;;;;;5.00;99987.00;;;;10496191;28;20240;-79
2021/12/02 12:39:41;;;;;;;6.03;4.37;;;;;5.60;99982.00;;;;10460242;28;20198;-79
2021/12/02 12:44:54;;;;;;;6.00;4.33;;;;;5.40;99986.00;;;;10452334;28;20262;-79
2021/12/02 12:50:30;;;;;;;7.27;4.10;;;;;5.30;99991.00;;;;10450572;28;20198;-79
2021/12/02 12:55:34;;;;;;;6.30;4.50;;;;;5.20;99988.00;;;;10534565;27;20189;-79
2021/12/02 13:00:45;;;;;;;6.63;3.53;;;;;5.20;100015.00;;;;10467685;28;20635;-80
2021/12/02 13:05:52;;;;;;;4.03;3.53;;;;;5.60;100010.00;;;;10462359;28;20252;-79
2021/12/02 13:10:57;;;;;;;4.97;2.73;;;;;6.70;100047.00;;;;10493888;28;20204;-79
2021/12/02 13:16:17;;;;;;;3.17;2.77;;;;;5.80;100092.00;;;;10461185;28;20232;-78
2021/12/02 13:21:35;;;;;;;4.77;2.17;;;;;4.40;100104.00;;;;10468899;28;20553;-81
2021/12/02 13:26:45;;;;;;;1.87;1.40;;;;;3.70;100079.00;;;;10472000;28;20699;-81
2021/12/02 13:31:51;;;;;;;1.83;1.30;;;;;2.90;100083.00;;;;10510691;28;20220;-83
2021/12/02 13:37:02;;;;;;;3.37;1.20;;;;;2.70;100077.00;;;;10461475;28;20201;-83
2021/12/02 13:42:08;;;;;;;0.90;0.90;;;;;2.80;100055.00;;;;10480548;28;20201;-81
2021/12/02 13:47:27;;;;;;;3.77;1.40;;;;;3.00;100053.00;;;;10455769;28;20341;-80
2021/12/02 13:57:51;;;;;;;4.77;1.80;;;;;3.10;100078.00;;;;10492970;28;20207;-79
2021/12/02 14:02:54;;;;;;;1.30;1.20;;;;;3.10;100079.00;;;;10469046;28;20200;-80
2021/12/02 14:08:02;;;;;;;3.17;1.27;;;;;3.10;100087.00;;;;10495818;28;20221;-80
2021/12/02 14:13:15;;;;;;;2.70;1.90;;;;;3.10;100097.00;;;;10460579;28;20245;-79
2021/12/02 14:18:24;;;;;;;2.97;1.90;;;;;2.90;100094.00;;;;10484428;28;20594;-79
2021/12/02 14:23:38;;;;;;;3.03;2.10;;;;;2.90;100110.00;;;;10469992;28;20250;-79
2021/12/02 14:28:50;;;;;;;5.70;2.03;;;;;2.80;100128.00;;;;10471804;28;20232;-80
2021/12/02 14:33:54;;;;;;;2.00;1.50;;;;;2.80;100126.00;;;;10501986;28;20259;-80
2021/12/02 14:39:00;;;;;;;3.03;1.20;;;;;2.70;100140.00;;;;10492051;28;20201;-79
2021/12/02 14:44:13;;;;;;;2.93;1.57;;;;;2.70;100145.00;;;;10494432;28;20540;-79
2021/12/02 14:49:38;;;;;;;2.30;1.47;;;;;2.60;100157.00;;;;10478040;28;20671;-79
2021/12/02 14:54:46;;;;;;;2.20;1.40;;;;;2.60;100152.00;;;;10493178;28;20249;-79
2021/12/02 15:00:05;;;;;;;2.23;1.20;;;;;2.50;100162.00;;;;10481969;28;20246;-79
2021/12/02 15:05:12;;;;;;;1.83;1.43;;;;;2.40;100166.00;;;;10484058;28;20231;-79
2021/12/02 15:10:21;;;;;;;1.93;1.50;;;;;2.40;100172.00;;;;10493995;28;20234;-79
2021/12/02 15:15:24;;;;;;;4.00;1.60;;;;;2.30;100184.00;;;;10522586;27;20204;-79
2021/12/02 15:20:29;;;;;;;2.77;1.87;;;;;2.20;100191.00;;;;10522875;27;20234;-80
2021/12/02 15:25:39;;;;;;;1.80;1.53;;;;;2.10;100201.00;;;;10514172;27;20215;-79
2021/12/02 15:30:51;;;;;;;2.33;1.60;;;;;2.00;100222.00;;;;10482380;28;20200;-79
2021/12/02 15:35:56;;;;;;;3.27;2.27;;;;;2.00;100237.00;;;;10450581;28;20194;-79
2021/12/02 15:40:59;;;;;;;4.17;3.17;;;;;2.00;100253.00;;;;10474919;28;20319;-79
2021/12/02 15:46:02;;;;;;;7.53;3.70;;;;;1.90;100263.00;;;;10493376;28;20229;-79
2021/12/02 15:51:05;;;;;;;6.00;3.03;;;;;1.80;100264.00;;;;10532500;27;20243;-79
2021/12/02 15:56:07;;;;;;;5.40;3.37;;;;;1.70;100267.00;;;;10533218;27;20609;-78
2021/12/02 16:01:10;;;;;;;6.50;3.43;;;;;1.60;100277.00;;;;10487054;27;20201;-79
2021/12/02 16:06:37;;;;;;;4.30;3.37;;;;;1.50;100294.00;;;;10433938;28;20221;-79
2021/12/02 16:17:00;;;;;;;6.27;3.60;;;;;1.40;100310.00;;;;10505720;28;20648;-79
2021/12/02 16:22:02;;;;;;;6.30;3.57;;;;;1.40;100320.00;;;;10469869;28;20292;-79
2021/12/02 16:27:05;;;;;;;5.10;3.47;;;;;1.30;100321.00;;;;10431470;28;20612;-79
2021/12/02 16:32:07;;;;;;;4.67;3.37;;;;;1.30;100335.00;;;;10479745;28;20225;-79
2021/12/02 16:37:09;;;;;;;9.03;4.33;;;;;1.30;100333.00;;;;10497452;28;20203;-79
2021/12/02 16:42:11;;;;;;;8.07;3.77;;;;;1.30;100342.00;;;;10445825;28;20228;-79
2021/12/02 16:47:13;;;;;;;6.30;3.77;;;;;1.30;100340.00;;;;10463713;28;20704;-79
2021/12/02 16:52:15;;;;;;;5.20;3.40;;;;;1.20;100352.00;;;;10463320;28;20205;-79
2021/12/02 16:57:18;;;;;;;5.87;4.00;;;;;1.20;100369.00;;;;10426680;28;20198;-79
2021/12/02 17:02:19;;;;;;;5.80;4.20;;;;;1.20;100371.00;;;;10462439;28;20193;-79
2021/12/02 17:07:22;;;;;;;6.57;4.93;;;;;1.10;100384.00;;;;10478743;28;20320;-79
2021/12/02 17:12:24;;;;;;;7.17;4.80;;;;;1.00;100406.00;;;;10430950;28;20220;-79
2021/12/02 17:17:26;;;;;;;11.77;4.73;;;;;1.00;100422.00;;;;10479455;28;20211;-79
2021/12/02 17:22:28;;;;;;;9.93;6.33;;;;;1.00;100434.00;;;;10473820;28;20226;-79
2021/12/02 17:27:30;;;;;;;10.27;6.30;;;;;1.00;100428.00;;;;10470348;28;20220;-79
2021/12/02 17:32:36;;;;;;;14.00;6.60;;;;;0.90;100421.00;;;;10485890;28;20270;-81
2021/12/02 17:37:37;;;;;;;14.60;6.90;;;;;0.90;100445.00;;;;10521937;28;20197;-80
2021/12/02 17:42:41;;;;;;;15.00;6.90;;;;;1.00;100449.00;;;;10469200;28;20218;-80
2021/12/02 17:47:43;;;;;;;14.40;7.10;;;;;1.00;100453.00;;;;10443602;28;20290;-80
2021/12/02 17:52:45;;;;;;;11.87;6.20;;;;;1.00;100451.00;;;;10456557;28;20205;-79
2021/12/02 17:57:47;;;;;;;14.30;7.23;;;;;1.10;100470.00;;;;10470659;28;20264;-80
2021/12/02 18:02:51;;;;;;;23.30;9.03;;;;;1.10;100482.00;;;;10459222;28;20247;-79
2021/12/02 18:07:54;;;;;;;23.10;9.50;;;;;1.20;100482.00;;;;10472455;28;20246;-80
2021/12/02 18:12:58;;;;;;;24.13;10.80;;;;;1.40;100493.00;;;;10489556;28;20193;-80
2021/12/02 18:18:00;;;;;;;26.67;12.30;;;;;1.50;100478.00;;;;10473788;28;20208;-81
2021/12/02 18:23:03;;;;;;;24.27;10.73;;;;;1.70;100491.00;;;;10490256;28;20750;-80
2021/12/02 18:28:08;;;;;;;29.93;11.80;;;;;1.70;100493.00;;;;10453257;28;20825;-80
2021/12/02 18:33:10;;;;;;;29.33;10.47;;;;;1.80;100505.00;;;;10475099;28;20699;-80
2021/12/02 18:38:12;;;;;;;31.80;10.80;;;;;1.80;100498.00;;;;10491183;28;20193;-81
2021/12/02 18:43:15;;;;;;;29.17;11.13;;;;;1.70;100482.00;;;;10467000;28;20208;-80
2021/12/02 18:48:17;;;;;;;25.77;9.57;;;;;1.50;100504.00;;;;10492889;28;20675;-80
2021/12/02 18:53:19;;;;;;;32.60;9.90;;;;;1.40;100513.00;;;;10491956;28;20231;-80
2021/12/02 18:58:22;;;;;;;23.57;10.50;;;;;1.50;100522.00;;;;10487227;28;20270;-81
2021/12/02 19:03:26;;;;;;;32.60;11.50;;;;;1.40;100534.00;;;;10451913;28;20252;-81
2021/12/02 19:09:27;;;;;;;34.90;10.60;;;;;1.40;100552.00;;;;10515379;27;20243;-80
2021/12/02 19:29:57;;;;;;;14.80;7.37;;;;;1.30;100588.00;;;;10492080;28;20200;-80
2021/12/02 19:34:59;;;;;;;16.37;6.43;;;;;1.30;100595.00;;;;10512274;27;20220;-80
2021/12/02 19:40:24;;;;;;;13.00;5.57;;;;;1.40;100590.00;;;;10466873;28;20279;-80
2021/12/02 19:45:26;;;;;;;17.00;6.23;;;;;1.40;100581.00;;;;10480793;28;20611;-80
2021/12/02 19:50:28;;;;;;;14.97;6.83;;;;;1.50;100572.00;;;;10485136;28;20647;-80
2021/12/02 19:55:30;;;;;;;12.73;6.13;;;;;1.50;100574.00;;;;10488180;28;20204;-80
2021/12/02 20:00:37;;;;;;;13.20;7.93;;;;;1.40;100590.00;;;;10466764;28;20196;-81
2021/12/02 20:05:39;;;;;;;16.57;7.67;;;;;1.30;100583.00;;;;10499486;28;20244;-80
2021/12/02 20:10:47;;;;;;;15.90;8.70;;;;;1.20;100588.00;;;;10447401;28;20201;-80
2021/12/02 20:15:58;;;;;;;14.93;8.73;;;;;1.10;100600.00;;;;10487881;28;20664;-80
2021/12/02 20:21:01;;;;;;;16.43;7.57;;;;;1.10;100599.00;;;;10477058;28;20199;-80
2021/12/02 20:26:03;;;;;;;19.33;7.43;;;;;1.10;100615.00;;;;10471859;28;20208;-79
2021/12/02 20:31:07;;;;;;;15.93;6.97;;;;;1.20;100615.00;;;;10473704;28;20200;-80
2021/12/02 20:36:09;;;;;;;18.37;7.87;;;;;1.30;100626.00;;;;10475852;28;20676;-80
2021/12/02 20:41:11;;;;;;;14.87;7.73;;;;;1.50;100634.00;;;;10501344;28;20231;-80
2021/12/02 20:46:14;;;;;;;15.33;7.53;;;;;1.60;100641.00;;;;10507022;28;20559;-80
2021/12/02 20:51:18;;;;;;;13.90;8.97;;;;;1.80;100645.00;;;;10528134;28;21453;-80
2021/12/02 20:56:26;;;;;;;19.27;9.67;;;;;1.90;100655.00;;;;10494112;28;20185;-81
2021/12/02 21:01:29;;;;;;;25.40;11.17;;;;;2.00;100653.00;;;;10472794;28;20522;-81
2021/12/02 21:06:31;;;;;;;25.37;10.40;;;;;2.10;100647.00;;;;10478324;28;20227;-80
2021/12/02 21:11:34;;;;;;;20.40;10.57;;;;;2.20;100657.00;;;;10480283;27;20196;-81
2021/12/02 21:16:38;;;;;;;21.83;11.00;;;;;2.20;100651.00;;;;10482223;28;20200;-80
2021/12/02 21:21:43;;;;;;;19.83;9.80;;;;;2.20;100650.00;;;;10511267;28;20196;-80
2021/12/02 21:26:58;;;;;;;23.03;9.23;;;;;2.20;100644.00;;;;10476017;28;20744;-80
2021/12/02 21:32:06;;;;;;;18.70;9.17;;;;;2.20;100639.00;;;;10462091;28;20220;-80
2021/12/02 21:37:16;;;;;;;17.40;9.20;;;;;2.10;100640.00;;;;10488101;28;20213;-80
2021/12/02 21:42:23;;;;;;;20.20;9.73;;;;;2.00;100634.00;;;;10465224;28;20225;-80
2021/12/02 21:47:25;;;;;;;13.73;8.10;;;;;1.90;100629.00;;;;10528214;27;20747;-80
2021/12/02 21:52:27;;;;;;;12.77;8.37;;;;;1.90;100625.00;;;;10489952;28;20205;-80
2021/12/02 21:57:29;;;;;;;18.93;8.10;;;;;1.80;100601.00;;;;10474734;28;20206;-80
2021/12/02 22:02:33;;;;;;;18.50;8.27;;;;;1.70;100615.00;;;;10493199;28;20197;-80
2021/12/02 22:07:35;;;;;;;18.00;7.63;;;;;1.70;100611.00;;;;10459563;28;20599;-80
2021/12/02 22:12:39;;;;;;;13.37;7.63;;;;;1.60;100619.00;;;;10471832;28;20192;-81
2021/12/02 22:17:42;;;;;;;17.57;8.27;;;;;1.40;100627.00;;;;10511303;28;20189;-80
2021/12/02 22:22:44;;;;;;;15.17;7.80;;;;;1.20;100623.00;;;;10491516;28;20197;-80
2021/12/02 22:27:47;;;;;;;16.47;9.67;;;;;1.10;100633.00;;;;10482337;28;20217;-81
2021/12/02 22:32:52;;;;;;;15.00;7.80;;;;;0.90;100628.00;;;;10482090;28;20248;-80
2021/12/02 22:37:55;;;;;;;14.90;8.67;;;;;0.90;100636.00;;;;10499425;28;20670;-80
2021/12/02 22:42:59;;;;;;;12.97;8.97;;;;;0.90;100643.00;;;;10473981;28;20207;-80
2021/12/02 22:48:01;;;;;;;18.70;9.33;;;;;0.80;100642.00;;;;10480735;28;20221;-80
2021/12/02 22:53:04;;;;;;;24.33;11.23;;;;;0.80;100655.00;;;;10450981;28;20201;-80
2021/12/02 22:58:07;;;;;;;19.10;10.30;;;;;0.90;100659.00;;;;10457636;28;20211;-81
2021/12/02 23:03:12;;;;;;;19.47;11.43;;;;;1.10;100678.00;;;;10449207;28;20207;-81
2021/12/02 23:08:15;;;;;;;20.70;12.23;;;;;1.20;100673.00;;;;10489962;28;20221;-81
2021/12/02 23:13:17;;;;;;;21.97;10.10;;;;;1.40;100693.00;;;;10517603;28;20209;-81
2021/12/02 23:18:19;;;;;;;19.27;10.87;;;;;1.60;100683.00;;;;10503894;28;20207;-80
2021/12/02 23:23:23;;;;;;;21.50;11.93;;;;;1.70;100675.00;;;;10496341;28;20230;-81
2021/12/02 23:28:27;;;;;;;25.27;11.73;;;;;1.80;100680.00;;;;10521248;28;20737;-80
2021/12/02 23:33:35;;;;;;;19.10;11.77;;;;;1.90;100686.00;;;;10490482;28;20220;-80
2021/12/02 23:38:39;;;;;;;21.00;13.03;;;;;2.00;100702.00;;;;10490933;28;20761;-80
2021/12/02 23:43:44;;;;;;;29.13;16.00;;;;;2.00;100680.00;;;;10460244;28;20201;-80
2021/12/02 23:48:46;;;;;;;26.37;14.57;;;;;2.10;100682.00;;;;10465809;28;20221;-80
2021/12/02 23:53:49;;;;;;;28.07;13.67;;;;;2.10;100672.00;;;;10466662;28;20734;-81
2021/12/02 23:58:51;;;;;;;29.33;14.90;;;;;2.20;100699.00;;;;10493036;28;20197;-80
